sensor_id;sensor_type;location;lat;lon;timestamp;pressure;altitude;pressure_sealevel;temperature;humidity
5380;BME280;2713;42.680;23.310;2023-03-18T00:01:49;95493.16;;;6.15;63.70
5380;BME280;2713;42.680;23.310;2023-03-18T00:04:18;95496.28;;;6.18;63.63
5380;BME280;2713;42.680;23.310;2023-03-18T00:06:44;95494.34;;;6.20;63.66
5380;BME280;2713;42.680;23.310;2023-03-18T00:09:12;95492.06;;;6.17;62.97
5380;BME280;2713;42.680;23.310;2023-03-18T00:11:39;95486.25;;;6.15;63.46
5380;BME280;2713;42.680;23.310;2023-03-18T00:14:06;95487.75;;;6.08;63.43
5380;BME280;2713;42.680;23.310;2023-03-18T00:16:34;95490.22;;;6.09;64.05
5380;BME280;2713;42.680;23.310;2023-03-18T00:19:01;95477.72;;;6.05;63.82
5380;BME280;2713;42.680;23.310;2023-03-18T00:21:30;95475.88;;;5.88;64.39
5380;BME280;2713;42.680;23.310;2023-03-18T00:23:57;95478.03;;;5.83;65.44
5380;BME280;2713;42.680;23.310;2023-03-18T00:26:26;95474.50;;;5.93;65.46
5380;BME280;2713;42.680;23.310;2023-03-18T00:28:55;95465.66;;;5.96;65.51
5380;BME280;2713;42.680;23.310;2023-03-18T00:31:23;95475.63;;;5.62;66.38
5380;BME280;2713;42.680;23.310;2023-03-18T00:33:50;95465.63;;;5.40;66.90
5380;BME280;2713;42.680;23.310;2023-03-18T00:36:17;95462.13;;;5.22;68.46
5380;BME280;2713;42.680;23.310;2023-03-18T00:38:53;95458.31;;;4.87;69.79
5380;BME280;2713;42.680;23.310;2023-03-18T00:41:23;95459.69;;;5.20;69.02
5380;BME280;2713;42.680;23.310;2023-03-18T00:43:50;95457.66;;;5.33;68.56
5380;BME280;2713;42.680;23.310;2023-03-18T00:46:22;95448.28;;;5.32;68.23
5380;BME280;2713;42.680;23.310;2023-03-18T00:48:50;95448.28;;;5.32;67.86
5380;BME280;2713;42.680;23.310;2023-03-18T00:51:18;95448.13;;;5.43;67.78
5380;BME280;2713;42.680;23.310;2023-03-18T00:53:48;95443.53;;;5.18;68.32
5380;BME280;2713;42.680;23.310;2023-03-18T00:56:19;95414.91;;;5.21;68.01
5380;BME280;2713;42.680;23.310;2023-03-18T00:58:48;95431.97;;;5.51;67.20
5380;BME280;2713;42.680;23.310;2023-03-18T01:01:16;95427.72;;;5.59;67.46
5380;BME280;2713;42.680;23.310;2023-03-18T01:03:44;95433.41;;;5.73;66.89
5380;BME280;2713;42.680;23.310;2023-03-18T01:06:15;95433.09;;;5.76;66.09
5380;BME280;2713;42.680;23.310;2023-03-18T01:08:42;95436.66;;;5.75;66.59
5380;BME280;2713;42.680;23.310;2023-03-18T01:11:10;95428.75;;;5.76;66.15
5380;BME280;2713;42.680;23.310;2023-03-18T01:13:39;95426.72;;;5.80;66.92
5380;BME280;2713;42.680;23.310;2023-03-18T01:16:07;95427.13;;;5.85;65.97
5380;BME280;2713;42.680;23.310;2023-03-18T01:18:35;95418.31;;;5.78;66.79
5380;BME280;2713;42.680;23.310;2023-03-18T01:21:02;95423.03;;;5.82;66.23
5380;BME280;2713;42.680;23.310;2023-03-18T01:23:34;95422.00;;;5.66;65.73
5380;BME280;2713;42.680;23.310;2023-03-18T01:26:01;95422.00;;;5.66;66.60
5380;BME280;2713;42.680;23.310;2023-03-18T01:28:29;95423.16;;;5.34;66.96
5380;BME280;2713;42.680;23.310;2023-03-18T01:30:58;95419.25;;;5.40;66.19
5380;BME280;2713;42.680;23.310;2023-03-18T01:33:26;95422.19;;;5.45;66.60
5380;BME280;2713;42.680;23.310;2023-03-18T01:35:55;95417.72;;;5.47;66.48
5380;BME280;2713;42.680;23.310;2023-03-18T01:38:26;95416.50;;;5.41;66.16
5380;BME280;2713;42.680;23.310;2023-03-18T01:40:55;95410.16;;;5.36;66.77
5380;BME280;2713;42.680;23.310;2023-03-18T01:43:25;95410.81;;;5.47;67.14
5380;BME280;2713;42.680;23.310;2023-03-18T01:45:56;95415.25;;;5.65;66.36
5380;BME280;2713;42.680;23.310;2023-03-18T01:48:27;95394.00;;;5.43;66.12
5380;BME280;2713;42.680;23.310;2023-03-18T01:51:03;95416.59;;;5.59;66.60
5380;BME280;2713;42.680;23.310;2023-03-18T01:53:34;95408.25;;;5.47;67.10
5380;BME280;2713;42.680;23.310;2023-03-18T01:56:02;95414.94;;;5.31;66.53
5380;BME280;2713;42.680;23.310;2023-03-18T01:58:33;95411.91;;;5.35;67.05
5380;BME280;2713;42.680;23.310;2023-03-18T02:01:05;95403.50;;;5.43;67.41
5380;BME280;2713;42.680;23.310;2023-03-18T02:03:37;95409.72;;;5.50;67.15
5380;BME280;2713;42.680;23.310;2023-03-18T02:06:06;95402.00;;;5.40;67.21
5380;BME280;2713;42.680;23.310;2023-03-18T02:08:33;95407.84;;;5.33;66.88
5380;BME280;2713;42.680;23.310;2023-03-18T02:11:01;95410.31;;;5.15;66.86
5380;BME280;2713;42.680;23.310;2023-03-18T02:13:28;95402.47;;;5.07;67.41
5380;BME280;2713;42.680;23.310;2023-03-18T02:16:00;95398.63;;;5.40;66.50
5380;BME280;2713;42.680;23.310;2023-03-18T02:18:33;95402.28;;;5.47;66.31
5380;BME280;2713;42.680;23.310;2023-03-18T02:21:15;95392.69;;;5.30;66.80
5380;BME280;2713;42.680;23.310;2023-03-18T02:23:59;95400.81;;;5.25;67.10
5380;BME280;2713;42.680;23.310;2023-03-18T02:26:35;95399.03;;;5.35;67.20
5380;BME280;2713;42.680;23.310;2023-03-18T02:29:07;95392.78;;;5.38;66.73
5380;BME280;2713;42.680;23.310;2023-03-18T02:34:26;95401.34;;;5.29;66.38
5380;BME280;2713;42.680;23.310;2023-03-18T02:36:55;95407.34;;;5.20;67.16
5380;BME280;2713;42.680;23.310;2023-03-18T02:39:23;95398.22;;;5.35;66.54
5380;BME280;2713;42.680;23.310;2023-03-18T02:41:52;95403.63;;;5.41;66.04
5380;BME280;2713;42.680;23.310;2023-03-18T02:44:20;95400.91;;;5.43;66.86
5380;BME280;2713;42.680;23.310;2023-03-18T02:47:10;95395.56;;;5.17;66.82
5380;BME280;2713;42.680;23.310;2023-03-18T02:49:39;95393.63;;;5.19;66.44
5380;BME280;2713;42.680;23.310;2023-03-18T02:52:06;95399.50;;;5.02;67.79
5380;BME280;2713;42.680;23.310;2023-03-18T02:54:32;95389.72;;;5.15;67.55
5380;BME280;2713;42.680;23.310;2023-03-18T02:56:59;95399.31;;;5.32;67.15
5380;BME280;2713;42.680;23.310;2023-03-18T02:59:29;95402.22;;;4.91;68.21
5380;BME280;2713;42.680;23.310;2023-03-18T03:01:57;95400.88;;;4.96;67.61
5380;BME280;2713;42.680;23.310;2023-03-18T03:04:24;95387.00;;;4.97;68.16
5380;BME280;2713;42.680;23.310;2023-03-18T03:06:52;95401.53;;;4.98;67.35
5380;BME280;2713;42.680;23.310;2023-03-18T03:09:33;95402.22;;;4.91;68.13
5380;BME280;2713;42.680;23.310;2023-03-18T03:12:00;95393.28;;;4.85;68.44
5380;BME280;2713;42.680;23.310;2023-03-18T03:14:29;95404.25;;;4.87;67.98
5380;BME280;2713;42.680;23.310;2023-03-18T03:16:59;95383.91;;;4.94;67.51
5380;BME280;2713;42.680;23.310;2023-03-18T03:19:26;95403.44;;;5.06;66.85
5380;BME280;2713;42.680;23.310;2023-03-18T03:21:54;95412.22;;;4.94;68.07
5380;BME280;2713;42.680;23.310;2023-03-18T03:24:24;95409.25;;;4.89;67.37
5380;BME280;2713;42.680;23.310;2023-03-18T03:26:51;95408.47;;;4.79;68.68
5380;BME280;2713;42.680;23.310;2023-03-18T03:29:17;95413.31;;;4.63;68.58
5380;BME280;2713;42.680;23.310;2023-03-18T03:31:49;95416.56;;;4.84;67.80
5380;BME280;2713;42.680;23.310;2023-03-18T03:34:16;95414.13;;;4.92;67.38
5380;BME280;2713;42.680;23.310;2023-03-18T03:36:44;95414.00;;;4.84;67.98
5380;BME280;2713;42.680;23.310;2023-03-18T03:39:10;95416.56;;;4.93;67.88
5380;BME280;2713;42.680;23.310;2023-03-18T03:41:38;95413.72;;;4.87;68.30
5380;BME280;2713;42.680;23.310;2023-03-18T03:44:04;95421.88;;;4.92;67.59
5380;BME280;2713;42.680;23.310;2023-03-18T03:46:31;95418.88;;;4.87;67.98
5380;BME280;2713;42.680;23.310;2023-03-18T03:49:00;95425.00;;;4.95;68.16
5380;BME280;2713;42.680;23.310;2023-03-18T03:51:27;95416.28;;;4.87;67.99
5380;BME280;2713;42.680;23.310;2023-03-18T03:53:54;95423.91;;;4.98;67.67
5380;BME280;2713;42.680;23.310;2023-03-18T03:56:21;95419.13;;;4.93;67.34
5380;BME280;2713;42.680;23.310;2023-03-18T03:58:48;95425.38;;;4.81;67.25
5380;BME280;2713;42.680;23.310;2023-03-18T04:01:15;95414.13;;;4.73;68.43
5380;BME280;2713;42.680;23.310;2023-03-18T04:03:44;95425.25;;;4.73;67.81
5380;BME280;2713;42.680;23.310;2023-03-18T04:06:13;95423.63;;;4.72;68.51
5380;BME280;2713;42.680;23.310;2023-03-18T04:08:47;95424.41;;;4.63;68.76
5380;BME280;2713;42.680;23.310;2023-03-18T04:11:14;95419.28;;;4.73;67.72
5380;BME280;2713;42.680;23.310;2023-03-18T04:13:41;95433.66;;;4.85;68.34
5380;BME280;2713;42.680;23.310;2023-03-18T04:16:08;95435.16;;;4.87;67.48
5380;BME280;2713;42.680;23.310;2023-03-18T04:18:35;95434.31;;;4.87;67.25
5380;BME280;2713;42.680;23.310;2023-03-18T04:21:03;95440.03;;;4.81;68.15
5380;BME280;2713;42.680;23.310;2023-03-18T04:23:57;95449.78;;;4.87;67.04
5380;BME280;2713;42.680;23.310;2023-03-18T04:26:25;95447.91;;;4.79;67.32
5380;BME280;2713;42.680;23.310;2023-03-18T04:28:56;95446.53;;;4.66;67.80
5380;BME280;2713;42.680;23.310;2023-03-18T04:31:23;95451.50;;;4.38;68.80
5380;BME280;2713;42.680;23.310;2023-03-18T04:33:50;95454.34;;;4.05;70.05
5380;BME280;2713;42.680;23.310;2023-03-18T04:36:17;95458.84;;;4.13;69.66
5380;BME280;2713;42.680;23.310;2023-03-18T04:38:44;95459.94;;;4.10;69.52
5380;BME280;2713;42.680;23.310;2023-03-18T04:41:13;95463.13;;;4.42;67.89
5380;BME280;2713;42.680;23.310;2023-03-18T04:43:39;95463.38;;;4.30;66.61
5380;BME280;2713;42.680;23.310;2023-03-18T04:46:07;95463.31;;;4.11;67.46
5380;BME280;2713;42.680;23.310;2023-03-18T04:48:35;95471.97;;;4.09;67.96
5380;BME280;2713;42.680;23.310;2023-03-18T04:51:04;95470.66;;;4.25;66.42
5380;BME280;2713;42.680;23.310;2023-03-18T04:53:33;95474.25;;;4.52;66.33
5380;BME280;2713;42.680;23.310;2023-03-18T04:56:00;95472.13;;;4.57;66.53
5380;BME280;2713;42.680;23.310;2023-03-18T04:58:36;95471.94;;;4.49;66.08
5380;BME280;2713;42.680;23.310;2023-03-18T05:01:09;95473.03;;;4.47;65.79
5380;BME280;2713;42.680;23.310;2023-03-18T05:03:37;95476.97;;;4.41;66.99
5380;BME280;2713;42.680;23.310;2023-03-18T05:06:05;95481.94;;;4.33;66.15
5380;BME280;2713;42.680;23.310;2023-03-18T05:08:48;95478.94;;;4.28;66.26
5380;BME280;2713;42.680;23.310;2023-03-18T05:11:16;95479.41;;;4.52;65.46
5380;BME280;2713;42.680;23.310;2023-03-18T05:13:45;95477.75;;;4.42;65.68
5380;BME280;2713;42.680;23.310;2023-03-18T05:16:13;95471.84;;;4.70;65.91
5380;BME280;2713;42.680;23.310;2023-03-18T05:18:41;95463.19;;;4.81;64.84
5380;BME280;2713;42.680;23.310;2023-03-18T05:21:09;95468.91;;;4.84;65.17
5380;BME280;2713;42.680;23.310;2023-03-18T05:23:37;95458.72;;;4.73;65.15
5380;BME280;2713;42.680;23.310;2023-03-18T05:26:04;95471.75;;;4.72;65.07
5380;BME280;2713;42.680;23.310;2023-03-18T05:28:32;95467.13;;;4.85;64.76
5380;BME280;2713;42.680;23.310;2023-03-18T05:31:14;95471.63;;;4.83;65.63
5380;BME280;2713;42.680;23.310;2023-03-18T05:33:42;95464.03;;;4.91;65.24
5380;BME280;2713;42.680;23.310;2023-03-18T05:36:11;95458.31;;;4.58;65.76
5380;BME280;2713;42.680;23.310;2023-03-18T05:38:50;95464.41;;;4.86;66.35
5380;BME280;2713;42.680;23.310;2023-03-18T05:41:16;95465.91;;;5.08;65.94
5380;BME280;2713;42.680;23.310;2023-03-18T05:43:43;95474.34;;;5.20;65.26
5380;BME280;2713;42.680;23.310;2023-03-18T05:46:11;95468.50;;;5.27;64.88
5380;BME280;2713;42.680;23.310;2023-03-18T05:48:58;95472.41;;;5.31;64.51
5380;BME280;2713;42.680;23.310;2023-03-18T05:51:30;95469.47;;;5.17;63.97
5380;BME280;2713;42.680;23.310;2023-03-18T05:53:58;95475.16;;;5.20;64.50
5380;BME280;2713;42.680;23.310;2023-03-18T05:56:29;95483.28;;;5.16;64.54
5380;BME280;2713;42.680;23.310;2023-03-18T05:59:00;95485.59;;;5.09;64.75
5380;BME280;2713;42.680;23.310;2023-03-18T06:01:41;95480.59;;;5.17;64.81
5380;BME280;2713;42.680;23.310;2023-03-18T06:04:10;95495.34;;;5.34;64.46
5380;BME280;2713;42.680;23.310;2023-03-18T06:06:37;95484.22;;;5.24;65.18
5380;BME280;2713;42.680;23.310;2023-03-18T06:09:06;95489.81;;;5.10;64.37
5380;BME280;2713;42.680;23.310;2023-03-18T06:11:33;95490.88;;;5.36;67.40
5380;BME280;2713;42.680;23.310;2023-03-18T06:13:59;95491.69;;;5.18;65.50
5380;BME280;2713;42.680;23.310;2023-03-18T06:16:26;95499.00;;;5.22;65.66
5380;BME280;2713;42.680;23.310;2023-03-18T06:18:54;95472.97;;;5.16;65.25
5380;BME280;2713;42.680;23.310;2023-03-18T06:21:24;95497.91;;;5.34;65.16
5380;BME280;2713;42.680;23.310;2023-03-18T06:23:51;95499.25;;;5.57;66.67
5380;BME280;2713;42.680;23.310;2023-03-18T06:26:19;95464.69;;;5.50;63.94
5380;BME280;2713;42.680;23.310;2023-03-18T06:28:48;95495.28;;;5.92;63.02
5380;BME280;2713;42.680;23.310;2023-03-18T06:31:16;95496.81;;;6.49;60.78
5380;BME280;2713;42.680;23.310;2023-03-18T06:33:43;95498.16;;;6.80;60.46
5380;BME280;2713;42.680;23.310;2023-03-18T06:36:13;95488.72;;;7.68;57.73
5380;BME280;2713;42.680;23.310;2023-03-18T06:38:45;95485.47;;;8.35;55.59
5380;BME280;2713;42.680;23.310;2023-03-18T06:41:13;95482.97;;;8.67;54.53
5380;BME280;2713;42.680;23.310;2023-03-18T06:43:54;95476.06;;;8.84;54.15
5380;BME280;2713;42.680;23.310;2023-03-18T06:46:21;95468.34;;;9.16;53.68
5380;BME280;2713;42.680;23.310;2023-03-18T06:48:49;95467.88;;;9.61;53.09
5380;BME280;2713;42.680;23.310;2023-03-18T06:51:22;95467.53;;;9.88;51.94
5380;BME280;2713;42.680;23.310;2023-03-18T06:53:50;95474.06;;;9.44;52.77
5380;BME280;2713;42.680;23.310;2023-03-18T06:56:17;95479.03;;;10.02;50.97
5380;BME280;2713;42.680;23.310;2023-03-18T06:58:57;95476.91;;;10.05;51.20
5380;BME280;2713;42.680;23.310;2023-03-18T07:01:24;95470.91;;;10.13;50.99
5380;BME280;2713;42.680;23.310;2023-03-18T07:03:52;95466.81;;;10.10;50.93
5380;BME280;2713;42.680;23.310;2023-03-18T07:06:19;95470.59;;;10.16;50.49
5380;BME280;2713;42.680;23.310;2023-03-18T07:08:46;95471.06;;;10.20;49.60
5380;BME280;2713;42.680;23.310;2023-03-18T07:11:14;95474.44;;;10.28;50.38
5380;BME280;2713;42.680;23.310;2023-03-18T07:13:43;95471.41;;;10.55;49.67
5380;BME280;2713;42.680;23.310;2023-03-18T07:16:17;95463.09;;;10.68;49.31
5380;BME280;2713;42.680;23.310;2023-03-18T07:18:44;95465.25;;;10.56;49.21
5380;BME280;2713;42.680;23.310;2023-03-18T07:21:12;95463.03;;;10.45;49.35
5380;BME280;2713;42.680;23.310;2023-03-18T07:23:39;95467.97;;;10.63;49.49
5380;BME280;2713;42.680;23.310;2023-03-18T07:26:06;95472.31;;;10.79;49.31
5380;BME280;2713;42.680;23.310;2023-03-18T07:28:34;95467.03;;;11.17;48.10
5380;BME280;2713;42.680;23.310;2023-03-18T07:31:01;95459.19;;;11.26;47.94
5380;BME280;2713;42.680;23.310;2023-03-18T07:33:28;95473.16;;;11.47;47.41
5380;BME280;2713;42.680;23.310;2023-03-18T07:35:55;95479.13;;;11.33;47.73
5380;BME280;2713;42.680;23.310;2023-03-18T07:38:22;95477.50;;;11.32;47.22
5380;BME280;2713;42.680;23.310;2023-03-18T07:40:48;95474.13;;;11.24;47.40
5380;BME280;2713;42.680;23.310;2023-03-18T07:43:15;95477.09;;;11.20;47.71
5380;BME280;2713;42.680;23.310;2023-03-18T07:45:44;95473.78;;;11.04;48.09
5380;BME280;2713;42.680;23.310;2023-03-18T07:48:11;95474.50;;;11.43;47.77
5380;BME280;2713;42.680;23.310;2023-03-18T07:50:38;95476.91;;;11.67;47.42
5380;BME280;2713;42.680;23.310;2023-03-18T07:53:06;95465.69;;;11.44;47.42
5380;BME280;2713;42.680;23.310;2023-03-18T07:55:33;95464.66;;;11.31;47.49
5380;BME280;2713;42.680;23.310;2023-03-18T07:58:00;95472.03;;;11.64;47.06
5380;BME280;2713;42.680;23.310;2023-03-18T08:00:29;95475.66;;;12.01;46.32
5380;BME280;2713;42.680;23.310;2023-03-18T08:02:58;95473.72;;;12.17;45.96
5380;BME280;2713;42.680;23.310;2023-03-18T08:05:24;95468.47;;;12.61;45.64
5380;BME280;2713;42.680;23.310;2023-03-18T08:07:51;95473.69;;;12.61;45.20
5380;BME280;2713;42.680;23.310;2023-03-18T08:10:19;95464.78;;;12.70;44.73
5380;BME280;2713;42.680;23.310;2023-03-18T08:12:46;95460.28;;;12.79;45.29
5380;BME280;2713;42.680;23.310;2023-03-18T08:15:13;95452.16;;;12.89;45.96
5380;BME280;2713;42.680;23.310;2023-03-18T08:17:40;95454.91;;;13.02;45.84
5380;BME280;2713;42.680;23.310;2023-03-18T08:20:10;95454.16;;;13.23;44.20
5380;BME280;2713;42.680;23.310;2023-03-18T08:22:37;95451.03;;;13.12;43.32
5380;BME280;2713;42.680;23.310;2023-03-18T08:25:05;95463.16;;;13.20;43.10
5380;BME280;2713;42.680;23.310;2023-03-18T08:27:32;95457.03;;;13.28;43.18
5380;BME280;2713;42.680;23.310;2023-03-18T08:29:58;95461.19;;;13.64;42.79
5380;BME280;2713;42.680;23.310;2023-03-18T08:32:25;95453.16;;;13.66;42.87
5380;BME280;2713;42.680;23.310;2023-03-18T08:34:52;95456.09;;;13.35;42.47
5380;BME280;2713;42.680;23.310;2023-03-18T08:37:20;95449.94;;;13.22;43.21
5380;BME280;2713;42.680;23.310;2023-03-18T08:39:47;95439.69;;;13.20;42.86
5380;BME280;2713;42.680;23.310;2023-03-18T08:42:14;95454.91;;;13.16;43.23
5380;BME280;2713;42.680;23.310;2023-03-18T08:44:41;95448.16;;;13.71;42.97
5380;BME280;2713;42.680;23.310;2023-03-18T08:47:08;95448.13;;;13.64;42.59
5380;BME280;2713;42.680;23.310;2023-03-18T08:49:35;95445.09;;;13.40;42.63
5380;BME280;2713;42.680;23.310;2023-03-18T08:52:02;95449.25;;;13.55;41.52
5380;BME280;2713;42.680;23.310;2023-03-18T08:54:30;95446.41;;;13.78;42.42
5380;BME280;2713;42.680;23.310;2023-03-18T08:56:57;95447.03;;;13.80;42.73
5380;BME280;2713;42.680;23.310;2023-03-18T08:59:25;95450.72;;;13.86;41.76
5380;BME280;2713;42.680;23.310;2023-03-18T09:01:52;95450.84;;;14.05;40.75
5380;BME280;2713;42.680;23.310;2023-03-18T09:04:18;95445.59;;;13.78;40.93
5380;BME280;2713;42.680;23.310;2023-03-18T09:06:46;95452.84;;;13.76;41.22
5380;BME280;2713;42.680;23.310;2023-03-18T09:09:13;95451.59;;;13.08;42.06
5380;BME280;2713;42.680;23.310;2023-03-18T09:11:41;95449.00;;;12.93;41.53
5380;BME280;2713;42.680;23.310;2023-03-18T09:14:10;95451.38;;;13.45;41.01
5380;BME280;2713;42.680;23.310;2023-03-18T09:16:37;95445.56;;;13.71;41.40
5380;BME280;2713;42.680;23.310;2023-03-18T09:19:04;95446.38;;;13.99;40.92
5380;BME280;2713;42.680;23.310;2023-03-18T09:21:31;95443.00;;;14.05;40.41
5380;BME280;2713;42.680;23.310;2023-03-18T09:23:58;95445.88;;;14.38;39.21
5380;BME280;2713;42.680;23.310;2023-03-18T09:26:25;95442.94;;;14.27;37.51
5380;BME280;2713;42.680;23.310;2023-03-18T09:28:53;95442.69;;;14.21;36.68
5380;BME280;2713;42.680;23.310;2023-03-18T09:31:19;95438.91;;;14.24;37.42
5380;BME280;2713;42.680;23.310;2023-03-18T09:33:46;95438.03;;;14.38;36.63
5380;BME280;2713;42.680;23.310;2023-03-18T09:36:13;95434.63;;;14.44;36.12
5380;BME280;2713;42.680;23.310;2023-03-18T09:38:40;95442.91;;;14.20;36.90
5380;BME280;2713;42.680;23.310;2023-03-18T09:41:19;95435.06;;;14.20;36.02
5380;BME280;2713;42.680;23.310;2023-03-18T09:43:58;95439.19;;;13.52;36.87
5380;BME280;2713;42.680;23.310;2023-03-18T09:46:36;95437.09;;;13.90;37.99
5380;BME280;2713;42.680;23.310;2023-03-18T09:52:15;95432.31;;;13.73;37.91
5380;BME280;2713;42.680;23.310;2023-03-18T09:54:47;95429.28;;;13.97;38.38
5380;BME280;2713;42.680;23.310;2023-03-18T09:57:18;95433.69;;;13.68;38.37
5380;BME280;2713;42.680;23.310;2023-03-18T09:59:50;95429.44;;;13.67;37.82
5380;BME280;2713;42.680;23.310;2023-03-18T10:02:24;95432.50;;;13.99;38.07
5380;BME280;2713;42.680;23.310;2023-03-18T10:04:54;95427.41;;;13.91;38.20
5380;BME280;2713;42.680;23.310;2023-03-18T10:07:28;95430.84;;;13.91;37.74
5380;BME280;2713;42.680;23.310;2023-03-18T10:09:59;95436.31;;;13.47;37.37
5380;BME280;2713;42.680;23.310;2023-03-18T10:12:30;95436.75;;;13.30;37.50
5380;BME280;2713;42.680;23.310;2023-03-18T10:15:23;95417.38;;;13.66;37.81
5380;BME280;2713;42.680;23.310;2023-03-18T10:17:55;95429.75;;;14.07;37.07
5380;BME280;2713;42.680;23.310;2023-03-18T10:20:32;95425.44;;;13.93;36.86
5380;BME280;2713;42.680;23.310;2023-03-18T10:23:10;95426.97;;;14.15;37.39
5380;BME280;2713;42.680;23.310;2023-03-18T10:25:45;95426.69;;;14.31;37.28
5380;BME280;2713;42.680;23.310;2023-03-18T10:28:31;95425.34;;;13.80;36.16
5380;BME280;2713;42.680;23.310;2023-03-18T10:31:10;95430.19;;;12.62;37.46
5380;BME280;2713;42.680;23.310;2023-03-18T10:33:44;95429.56;;;12.60;37.16
5380;BME280;2713;42.680;23.310;2023-03-18T10:36:17;95417.81;;;12.70;36.69
5380;BME280;2713;42.680;23.310;2023-03-18T10:38:46;95414.56;;;12.83;37.07
5380;BME280;2713;42.680;23.310;2023-03-18T10:41:17;95421.47;;;13.48;36.54
5380;BME280;2713;42.680;23.310;2023-03-18T10:43:46;95431.31;;;13.46;35.50
5380;BME280;2713;42.680;23.310;2023-03-18T10:46:18;95422.88;;;12.72;35.38
5380;BME280;2713;42.680;23.310;2023-03-18T10:48:47;95418.09;;;12.76;36.47
5380;BME280;2713;42.680;23.310;2023-03-18T10:51:18;95425.72;;;12.41;35.27
5380;BME280;2713;42.680;23.310;2023-03-18T10:53:52;95418.31;;;11.72;35.44
5380;BME280;2713;42.680;23.310;2023-03-18T10:56:21;95422.00;;;11.77;36.53
5380;BME280;2713;42.680;23.310;2023-03-18T10:58:48;95417.31;;;12.60;37.07
5380;BME280;2713;42.680;23.310;2023-03-18T11:01:19;95403.63;;;13.09;36.33
5380;BME280;2713;42.680;23.310;2023-03-18T11:03:51;95411.56;;;13.01;35.94
5380;BME280;2713;42.680;23.310;2023-03-18T11:06:22;95402.16;;;12.85;35.84
5380;BME280;2713;42.680;23.310;2023-03-18T11:08:59;95416.25;;;12.55;36.50
5380;BME280;2713;42.680;23.310;2023-03-18T11:11:28;95411.16;;;12.03;38.37
5380;BME280;2713;42.680;23.310;2023-03-18T11:13:57;95414.47;;;11.82;39.04
5380;BME280;2713;42.680;23.310;2023-03-18T11:16:33;95416.31;;;11.36;39.70
5380;BME280;2713;42.680;23.310;2023-03-18T11:19:06;95410.19;;;11.29;40.01
5380;BME280;2713;42.680;23.310;2023-03-18T11:21:34;95412.50;;;11.47;39.70
5380;BME280;2713;42.680;23.310;2023-03-18T11:24:01;95408.56;;;11.28;39.46
5380;BME280;2713;42.680;23.310;2023-03-18T11:26:47;95394.03;;;11.34;39.00
5380;BME280;2713;42.680;23.310;2023-03-18T11:29:20;95408.66;;;11.57;38.36
5380;BME280;2713;42.680;23.310;2023-03-18T11:31:52;95405.84;;;11.96;37.09
5380;BME280;2713;42.680;23.310;2023-03-18T11:34:22;95398.66;;;12.28;36.37
5380;BME280;2713;42.680;23.310;2023-03-18T11:36:57;95401.13;;;12.65;36.15
5380;BME280;2713;42.680;23.310;2023-03-18T11:39:30;95394.19;;;12.36;35.55
5380;BME280;2713;42.680;23.310;2023-03-18T11:41:58;95399.63;;;12.56;35.77
5380;BME280;2713;42.680;23.310;2023-03-18T11:44:30;95388.41;;;12.77;34.32
5380;BME280;2713;42.680;23.310;2023-03-18T11:47:04;95387.00;;;12.95;33.39
5380;BME280;2713;42.680;23.310;2023-03-18T11:49:35;95401.19;;;12.36;35.03
5380;BME280;2713;42.680;23.310;2023-03-18T11:55:12;95401.28;;;12.28;35.73
5380;BME280;2713;42.680;23.310;2023-03-18T11:58:03;95397.88;;;11.98;35.04
5380;BME280;2713;42.680;23.310;2023-03-18T12:00:36;95404.16;;;12.33;34.36
5380;BME280;2713;42.680;23.310;2023-03-18T12:03:41;95405.13;;;12.46;34.49
5380;BME280;2713;42.680;23.310;2023-03-18T12:06:16;95396.19;;;12.55;34.35
5380;BME280;2713;42.680;23.310;2023-03-18T12:08:52;95407.00;;;12.23;35.32
5380;BME280;2713;42.680;23.310;2023-03-18T12:11:30;95358.28;;;11.50;36.00
5380;BME280;2713;42.680;23.310;2023-03-18T12:14:04;95392.19;;;11.80;36.54
5380;BME280;2713;42.680;23.310;2023-03-18T12:16:46;95398.13;;;12.17;36.41
5380;BME280;2713;42.680;23.310;2023-03-18T12:19:31;95399.19;;;11.42;37.38
5380;BME280;2713;42.680;23.310;2023-03-18T12:22:39;95395.03;;;11.33;37.66
5380;BME280;2713;42.680;23.310;2023-03-18T12:34:51;95391.63;;;11.69;35.69
5380;BME280;2713;42.680;23.310;2023-03-18T12:37:27;95389.78;;;12.07;35.75
5380;BME280;2713;42.680;23.310;2023-03-18T12:40:16;95387.13;;;12.37;35.00
5380;BME280;2713;42.680;23.310;2023-03-18T12:42:59;95388.78;;;11.79;36.30
5380;BME280;2713;42.680;23.310;2023-03-18T12:45:33;95376.13;;;12.05;34.72
5380;BME280;2713;42.680;23.310;2023-03-18T12:48:03;95377.56;;;12.08;36.32
5380;BME280;2713;42.680;23.310;2023-03-18T12:50:37;95366.31;;;12.22;35.48
5380;BME280;2713;42.680;23.310;2023-03-18T12:53:11;95385.78;;;11.67;36.77
5380;BME280;2713;42.680;23.310;2023-03-18T12:55:41;95384.78;;;11.68;36.80
5380;BME280;2713;42.680;23.310;2023-03-18T12:58:12;95384.13;;;12.04;36.52
5380;BME280;2713;42.680;23.310;2023-03-18T13:00:45;95381.44;;;12.12;35.65
5380;BME280;2713;42.680;23.310;2023-03-18T13:03:24;95370.97;;;11.31;35.92
5380;BME280;2713;42.680;23.310;2023-03-18T13:05:57;95384.44;;;11.19;36.53
5380;BME280;2713;42.680;23.310;2023-03-18T13:08:43;95381.38;;;11.31;36.40
5380;BME280;2713;42.680;23.310;2023-03-18T13:11:25;95380.59;;;11.67;36.39
5380;BME280;2713;42.680;23.310;2023-03-18T13:13:59;95374.50;;;12.19;39.61
5380;BME280;2713;42.680;23.310;2023-03-18T13:16:30;95371.06;;;12.33;36.05
5380;BME280;2713;42.680;23.310;2023-03-18T13:18:58;95387.22;;;12.43;50.18
5380;BME280;2713;42.680;23.310;2023-03-18T13:21:29;95369.66;;;12.01;34.72
5380;BME280;2713;42.680;23.310;2023-03-18T13:29:50;95384.91;;;11.90;34.95
5380;BME280;2713;42.680;23.310;2023-03-18T13:32:30;95385.34;;;11.79;34.15
5380;BME280;2713;42.680;23.310;2023-03-18T13:35:37;95383.41;;;11.43;34.83
5380;BME280;2713;42.680;23.310;2023-03-18T13:38:29;95384.63;;;11.10;35.03
5380;BME280;2713;42.680;23.310;2023-03-18T13:41:21;95371.69;;;11.25;35.53
5380;BME280;2713;42.680;23.310;2023-03-18T13:43:57;95378.31;;;11.27;35.16
5380;BME280;2713;42.680;23.310;2023-03-18T13:46:28;95374.31;;;11.39;35.49
5380;BME280;2713;42.680;23.310;2023-03-18T13:48:57;95365.81;;;11.45;35.33
5380;BME280;2713;42.680;23.310;2023-03-18T13:51:44;95378.44;;;11.86;35.12
5380;BME280;2713;42.680;23.310;2023-03-18T13:54:16;95356.00;;;12.14;34.12
5380;BME280;2713;42.680;23.310;2023-03-18T13:56:48;95356.88;;;12.21;33.71
5380;BME280;2713;42.680;23.310;2023-03-18T13:59:46;95363.91;;;12.06;34.12
5380;BME280;2713;42.680;23.310;2023-03-18T14:02:31;95362.91;;;12.22;33.33